createdAt,value
2023-04-06T00:01:40.160Z,100883.94
2023-04-06T00:06:36.883Z,100871.84
2023-04-06T00:11:34.420Z,100870.19
2023-04-06T00:16:31.136Z,100861.50
2023-04-06T00:21:27.892Z,100862.41
2023-04-06T00:26:24.586Z,100827.94
2023-04-06T00:31:22.330Z,100850.22
2023-04-06T00:36:19.187Z,100845.19
2023-04-06T00:41:16.096Z,100834.81
2023-04-06T00:46:12.863Z,100833.00
2023-04-06T00:51:10.491Z,100843.44
2023-04-06T00:56:10.371Z,100839.13
2023-04-06T01:01:18.536Z,100801.09
2023-04-06T01:06:17.605Z,100837.28
2023-04-06T01:11:20.027Z,100832.13
2023-04-06T01:16:18.799Z,100822.75
2023-04-06T01:21:28.331Z,100816.66
2023-04-06T01:26:38.015Z,100813.13
2023-04-06T01:31:38.072Z,100801.75
2023-04-06T01:36:35.027Z,100800.03
2023-04-06T01:41:47.534Z,100791.34
2023-04-06T01:46:46.231Z,100786.19
2023-04-06T01:51:47.533Z,100778.50
2023-04-06T01:56:44.276Z,100776.78
2023-04-06T02:01:56.405Z,100777.56
2023-04-06T02:06:55.361Z,100774.19
2023-04-06T02:11:56.148Z,100765.50
2023-04-06T02:16:52.911Z,100767.25
2023-04-06T02:21:50.352Z,100762.03
2023-04-06T02:26:47.135Z,100748.09
2023-04-06T02:31:43.923Z,100736.03
2023-04-06T02:36:40.923Z,100749.81
2023-04-06T02:41:38.795Z,100741.25
2023-04-06T02:46:36.618Z,100742.81
2023-04-06T02:51:34.095Z,100752.28
2023-04-06T02:56:45.058Z,100755.72
2023-04-06T03:01:42.820Z,100749.69
2023-04-06T03:06:40.938Z,100745.28
2023-04-06T03:11:49.385Z,100741.03
2023-04-06T03:16:46.422Z,100747.00
2023-04-06T03:21:48.391Z,100752.19
2023-04-06T03:26:50.173Z,100741.81
2023-04-06T03:31:47.396Z,100723.03
2023-04-06T03:37:09.885Z,100746.13
2023-04-06T03:42:12.322Z,100745.22
2023-04-06T03:47:16.030Z,100741.72
2023-04-06T03:52:12.933Z,100734.72
2023-04-06T03:57:09.863Z,100732.19
2023-04-06T04:02:07.632Z,100735.59
2023-04-06T04:07:04.530Z,100735.63
2023-04-06T04:12:01.442Z,100750.22
2023-04-06T04:16:59.752Z,100725.25
2023-04-06T04:21:57.342Z,100731.97
2023-04-06T04:27:01.877Z,100750.31
2023-04-06T04:32:01.249Z,100745.59
2023-04-06T04:36:58.854Z,100734.44
2023-04-06T04:42:08.510Z,100752.53
2023-04-06T04:47:08.778Z,100753.56
2023-04-06T04:52:14.444Z,100747.50
2023-04-06T04:57:21.861Z,100753.56
2023-04-06T05:02:19.248Z,100753.81
2023-04-06T05:07:28.213Z,100761.41
2023-04-06T05:12:27.823Z,100761.38
2023-04-06T05:17:35.166Z,100754.31
2023-04-06T05:22:33.250Z,100749.13
2023-04-06T05:27:39.610Z,100746.75
2023-04-06T05:32:44.814Z,100744.69
2023-04-06T05:37:42.559Z,100717.13
2023-04-06T05:43:09.371Z,100735.88
2023-04-06T05:48:09.891Z,100729.47
2023-04-06T05:53:07.262Z,100730.28
2023-04-06T05:58:10.801Z,100731.16
2023-04-06T06:03:18.200Z,100735.59
2023-04-06T06:08:21.852Z,100731.25
2023-04-06T06:13:24.707Z,100724.28
2023-04-06T06:18:24.012Z,100725.63
2023-04-06T06:23:24.105Z,100711.06
2023-04-06T06:28:20.995Z,100727.56
2023-04-06T06:33:51.590Z,100723.31
2023-04-06T06:39:19.001Z,100721.56
2023-04-06T06:49:24.230Z,100724.88
2023-04-06T07:23:52.594Z,100723.69
2023-04-06T07:30:18.105Z,100725.78
2023-04-06T07:41:47.897Z,100733.03
2023-04-06T07:47:29.666Z,100728.44
2023-04-06T08:22:15.205Z,100721.56
2023-04-06T08:27:22.442Z,100725.03
2023-04-06T08:32:42.211Z,100709.47
2023-04-06T08:37:57.286Z,100705.56
2023-04-06T08:42:55.767Z,100727.72
2023-04-06T08:47:53.163Z,100725.38
2023-04-06T08:52:50.651Z,100721.66
2023-04-06T08:57:50.555Z,100723.47
2023-04-06T09:02:48.232Z,100728.22
2023-04-06T09:07:45.762Z,100719.69
2023-04-06T09:12:43.328Z,100724.53
2023-04-06T09:17:40.208Z,100723.50
2023-04-06T09:22:37.726Z,100723.88
2023-04-06T09:27:35.625Z,100719.03
2023-04-06T09:32:33.323Z,100718.03
2023-04-06T09:37:32.036Z,100729.16
2023-04-06T09:42:28.940Z,100724.34
2023-04-06T09:47:29.027Z,100694.53
2023-04-06T09:52:28.336Z,100713.19
2023-04-06T09:57:26.574Z,100716.41
2023-04-06T10:02:31.013Z,100719.06
2023-04-06T10:07:29.248Z,100721.91
2023-04-06T10:12:26.154Z,100710.50
2023-04-06T10:17:24.752Z,100710.72
2023-04-06T10:22:25.295Z,100699.50
2023-04-06T10:27:36.977Z,100704.03
2023-04-06T10:32:39.789Z,100695.28
2023-04-06T10:37:50.963Z,100701.13
2023-04-06T10:42:48.428Z,100683.13
2023-04-06T10:47:45.505Z,100699.09
2023-04-06T10:52:44.968Z,100687.75
2023-04-06T10:57:43.002Z,100683.22
2023-04-06T11:02:41.207Z,100687.53
2023-04-06T11:07:40.548Z,100679.88
2023-04-06T11:12:37.257Z,100680.22
2023-04-06T11:17:35.006Z,100651.53
2023-04-06T11:22:35.293Z,100669.22
2023-04-06T11:27:32.642Z,100661.75
2023-04-06T11:32:47.135Z,100667.69
2023-04-06T11:37:45.571Z,100660.16
2023-04-06T11:42:42.605Z,100654.25
2023-04-06T11:47:39.745Z,100660.09
2023-04-06T11:52:36.925Z,100653.28
2023-04-06T11:57:34.999Z,100644.25
2023-04-06T12:02:32.792Z,100622.63
2023-04-06T12:07:29.964Z,100644.00
2023-04-06T12:12:32.966Z,100649.72
2023-04-06T12:17:31.156Z,100647.81
2023-04-06T12:22:29.103Z,100634.44
2023-04-06T12:27:26.054Z,100630.47
2023-04-06T12:32:22.695Z,100627.72
2023-04-06T12:37:20.883Z,100620.56
2023-04-06T12:42:17.640Z,100630.41
2023-04-06T12:47:14.557Z,100607.28
2023-04-06T12:52:17.414Z,100624.94
2023-04-06T12:57:15.771Z,100625.50
2023-04-06T13:02:13.056Z,100611.25
2023-04-06T13:07:26.507Z,100601.38
2023-04-06T13:12:25.902Z,100606.03
2023-04-06T13:17:23.005Z,100590.44
2023-04-06T13:22:20.076Z,100590.69
2023-04-06T13:27:17.851Z,100589.25
2023-04-06T13:32:16.256Z,100589.78
2023-04-06T13:37:13.334Z,100597.97
2023-04-06T13:42:10.428Z,100586.84
2023-04-06T13:47:08.687Z,100575.63
2023-04-06T13:52:10.719Z,100577.63
2023-04-06T13:57:07.881Z,100575.75
2023-04-06T14:02:05.515Z,100581.88
2023-04-06T14:07:02.469Z,100577.25
2023-04-06T14:12:00.171Z,100573.72
2023-04-06T14:16:58.929Z,100575.50
2023-04-06T14:21:58.347Z,100570.06
2023-04-06T14:26:55.261Z,100575.69
2023-04-06T14:31:52.682Z,100566.16
2023-04-06T14:36:49.528Z,100571.88
2023-04-06T14:41:48.688Z,100569.25
2023-04-06T14:46:45.938Z,100571.75
2023-04-06T14:51:43.232Z,100567.38
2023-04-06T14:56:43.477Z,100567.50
2023-04-06T15:01:43.004Z,100552.72
2023-04-06T15:06:39.841Z,100575.69
2023-04-06T15:11:41.454Z,100573.50
2023-04-06T15:16:38.002Z,100579.72
2023-04-06T15:21:35.217Z,100587.13
2023-04-06T15:26:33.765Z,100582.44
2023-04-06T15:31:37.454Z,100563.63
2023-04-06T15:36:39.315Z,100588.94
2023-04-06T15:41:36.876Z,100602.56
2023-04-06T15:46:34.255Z,100599.53
2023-04-06T15:51:30.942Z,100603.84
2023-04-06T15:56:27.514Z,100572.31
2023-04-06T16:01:24.125Z,100580.13
2023-04-06T16:06:21.403Z,100606.59
2023-04-06T16:11:18.297Z,100612.28
2023-04-06T16:16:15.198Z,100618.09
2023-04-06T16:21:16.643Z,100618.19
2023-04-06T16:26:14.550Z,100622.41
2023-04-06T16:31:18.762Z,100625.19
2023-04-06T16:36:21.440Z,100638.06
2023-04-06T16:41:18.773Z,100630.94
2023-04-06T16:46:15.749Z,100639.94
2023-04-06T16:51:12.434Z,100642.63
2023-04-06T17:01:07.238Z,100659.50
2023-04-06T17:06:04.009Z,100671.38
2023-04-06T17:11:04.115Z,100676.06
2023-04-06T17:16:02.511Z,100690.09
2023-04-06T17:21:04.274Z,100685.16
2023-04-06T17:26:05.434Z,100688.41
2023-04-06T17:31:07.214Z,100689.59
2023-04-06T17:36:07.370Z,100703.13
2023-04-06T17:41:07.014Z,100698.47
2023-04-06T17:46:08.103Z,100710.50
2023-04-06T17:51:05.539Z,100727.41
2023-04-06T17:56:03.197Z,100742.78
2023-04-06T18:00:59.973Z,100756.28
2023-04-06T18:05:57.197Z,100760.78
2023-04-06T18:10:54.540Z,100770.97
2023-04-06T18:15:51.375Z,100777.78
2023-04-06T18:20:48.146Z,100782.84
2023-04-06T18:25:44.832Z,100802.13
2023-04-06T18:30:43.259Z,100804.59
2023-04-06T18:35:44.166Z,100785.13
2023-04-06T18:40:42.087Z,100816.56
2023-04-06T18:45:38.768Z,100819.19
2023-04-06T18:50:38.954Z,100798.72
2023-04-06T18:55:36.678Z,100827.78
2023-04-06T19:00:33.292Z,100832.66
2023-04-06T19:05:33.492Z,100839.63
2023-04-06T19:10:34.008Z,100834.94
2023-04-06T19:15:34.480Z,100838.13
2023-04-06T19:20:34.491Z,100841.75
2023-04-06T19:25:31.886Z,100845.31
2023-04-06T19:30:28.461Z,100855.56
2023-04-06T19:35:25.210Z,100838.50
2023-04-06T19:40:24.365Z,100861.97
2023-04-06T19:45:21.902Z,100876.41
2023-04-06T19:50:18.575Z,100870.19
2023-04-06T19:55:15.438Z,100875.31
2023-04-06T20:00:20.998Z,100876.41
2023-04-06T20:05:21.029Z,100877.75
2023-04-06T20:10:18.101Z,100888.25
2023-04-06T20:15:15.136Z,100895.00
2023-04-06T20:20:11.964Z,100891.47
2023-04-06T20:25:10.816Z,100897.97
2023-04-06T20:30:12.136Z,100904.63
2023-04-06T20:35:09.254Z,100907.53
2023-04-06T20:40:06.800Z,100901.59
2023-04-06T20:45:06.182Z,100916.25
2023-04-06T20:50:03.447Z,100920.72
2023-04-06T20:55:00.835Z,100921.47
2023-04-06T20:59:57.507Z,100929.44
2023-04-06T21:04:54.952Z,100933.69
2023-04-06T21:09:51.579Z,100929.97
2023-04-06T21:14:48.191Z,100942.22
2023-04-06T21:19:44.946Z,100942.44
2023-04-06T21:24:42.354Z,100942.22
2023-04-06T21:29:39.061Z,100926.34
2023-04-06T21:34:38.682Z,100941.94
2023-04-06T21:39:36.825Z,100949.81
2023-04-06T21:44:34.550Z,100946.91
2023-04-06T21:49:31.464Z,100946.53
2023-04-06T21:54:31.708Z,100952.31
2023-04-06T21:59:28.587Z,100928.84
2023-04-06T22:04:26.352Z,100937.31
2023-04-06T22:09:22.989Z,100929.41
2023-04-06T22:14:20.032Z,100940.00
2023-04-06T22:19:16.744Z,100937.50
2023-04-06T22:24:14.017Z,100935.69
2023-04-06T22:29:10.678Z,100932.13
2023-04-06T22:34:07.347Z,100933.09
2023-04-06T22:39:03.996Z,100924.06
2023-04-06T22:44:01.687Z,100932.72
2023-04-06T22:48:58.205Z,100917.31
2023-04-06T22:53:55.103Z,100911.34
2023-04-06T22:58:51.814Z,100913.19
2023-04-06T23:03:49.299Z,100913.25
2023-04-06T23:08:46.656Z,100914.28
2023-04-06T23:13:43.472Z,100900.91
2023-04-06T23:18:40.677Z,100897.50
2023-04-06T23:23:37.967Z,100899.06
2023-04-06T23:28:34.748Z,100896.81
2023-04-06T23:33:31.667Z,100906.31
2023-04-06T23:38:28.426Z,100906.38
2023-04-06T23:43:25.822Z,100904.63
2023-04-06T23:48:22.441Z,100902.81
2023-04-06T23:53:19.102Z,100913.84
2023-04-06T23:58:19.002Z,100919.72
